»·PEaware :: N244CT KFUL-KAVX

N244CT :: KFUL-KAVX

FLIGHT INFORMATION

Flight Status: Arrived
Operator: Privately registered:
United States
More flights under this callsign
Pilot: Anonymous 12820 (12820)
Aircraft: CESSNA 172 SKYHAWK
(C172)
More flights by this aircraft type
Origin: KFUL Fullerton Mun
United States
Destination: KAVX Catalina
United States
More flights between these airports :: More routes between these airports
Route: SLI V21 SXC
File this flight plan on PilotEdge
Remarks: +CW /
Altitude:
(Current/Filed)
4,000ft
Speed:
(Current/Filed)
115kts
Departed: 08-Nov-19 09:07 AM
Arrived: 08-Nov-19 10:18 AM
Distance/Time
Traveled:
36nm/1:10
Distance/Time
To Go:
Arrived

Flight Plot

Page will automatically refresh every two minutes.

Flight plan parsing failed; only flown route is shown


Map Options




Map Legend


Flown Route
Filed Route
Departure Airport
Arrival Airport
Navaid (VOR, NDB)
Fix

Horizontal Profiles

Position Reports

Time Latitude Longitude Heading Altitude Ground
Speed
08-Nov-19 08:43 33.872827 -117.980911 262 91ft 0kts
08-Nov-19 08:44 33.872827 -117.980911 262 91ft 0kts
08-Nov-19 08:45 33.872827 -117.980911 262 91ft 0kts
08-Nov-19 08:46 33.872827 -117.980911 262 91ft 0kts
08-Nov-19 08:47 33.872827 -117.980911 262 91ft 0kts
08-Nov-19 08:48 33.872827 -117.980911 262 91ft 0kts
08-Nov-19 08:49 33.872827 -117.980911 262 91ft 0kts
08-Nov-19 08:50 33.872827 -117.980911 262 91ft 0kts
08-Nov-19 08:51 33.872827 -117.980911 262 91ft 0kts
08-Nov-19 08:52 33.872827 -117.980911 262 91ft 0kts
08-Nov-19 08:53 33.872827 -117.980911 262 91ft 0kts
08-Nov-19 08:54 33.872827 -117.980911 262 91ft 0kts
08-Nov-19 08:55 33.872827 -117.980911 262 91ft 0kts
08-Nov-19 08:56 33.872827 -117.980911 262 91ft 0kts
08-Nov-19 08:57 33.872827 -117.980910 262 91ft 0kts
08-Nov-19 08:58 33.872827 -117.980910 262 91ft 0kts
08-Nov-19 08:59 33.872827 -117.980911 262 91ft 0kts
08-Nov-19 09:00 33.872220 -117.981344 127 90ft 7kts
08-Nov-19 09:01 33.873274 -117.976209 105 96ft 5kts
08-Nov-19 09:02 33.873270 -117.976196 110 96ft 0kts
08-Nov-19 09:03 33.873271 -117.976196 110 96ft 0kts
08-Nov-19 09:04 33.873271 -117.976196 110 96ft 0kts
08-Nov-19 09:05 33.873270 -117.976196 110 96ft 0kts
08-Nov-19 09:06 33.872148 -117.979089 256 99ft 67kts
08-Nov-19 09:07 33.861772 -117.992763 160 1184ft 92kts
08-Nov-19 09:08 33.845348 -117.968196 133 2221ft 97kts
08-Nov-19 09:09 33.828524 -117.942711 133 3170ft 102kts
08-Nov-19 09:10 33.806636 -117.929840 219 3849ft 103kts
08-Nov-19 09:11 33.799062 -117.960772 263 4017ft 101kts
08-Nov-19 09:12 33.791722 -117.994864 252 3929ft 110kts
08-Nov-19 09:13 33.784507 -118.029639 253 3933ft 106kts
08-Nov-19 09:14 33.770407 -118.059848 211 3877ft 119kts
08-Nov-19 09:15 33.747418 -118.083732 224 3947ft 110kts
08-Nov-19 09:16 33.721631 -118.104136 218 4010ft 109kts
08-Nov-19 09:17 33.697962 -118.126446 232 4107ft 105kts
08-Nov-19 09:18 33.670781 -118.145776 216 3979ft 112kts
08-Nov-19 09:19 33.646216 -118.167555 237 4060ft 102kts
08-Nov-19 09:20 33.624450 -118.192175 221 4076ft 106kts
08-Nov-19 09:21 33.597244 -118.211648 226 3963ft 109kts
08-Nov-19 09:22 33.572151 -118.232475 220 4006ft 111kts
08-Nov-19 09:23 33.545860 -118.252203 232 3992ft 110kts
08-Nov-19 09:24 33.524597 -118.277369 216 4049ft 109kts
08-Nov-19 09:25 33.498844 -118.297937 217 4042ft 112kts
08-Nov-19 09:26 33.473909 -118.320726 220 3973ft 113kts
08-Nov-19 09:27 33.447088 -118.340318 221 3914ft 109kts
08-Nov-19 09:28 33.424079 -118.364345 222 3338ft 109kts
08-Nov-19 09:29 33.401119 -118.386391 232 3340ft 100kts
08-Nov-19 09:30 33.382090 -118.411210 224 3340ft 105kts
08-Nov-19 09:31 33.355880 -118.427775 208 3380ft 107kts
08-Nov-19 09:32 33.330827 -118.437201 204 3442ft 92kts
08-Nov-19 09:33 33.329907 -118.452537 357 3429ft 92kts
08-Nov-19 09:34 33.352017 -118.432123 19 3153ft 96kts
08-Nov-19 09:35 33.377083 -118.417696 26 3079ft 93kts
08-Nov-19 09:36 33.401555 -118.401785 9 2555ft 105kts
08-Nov-19 09:37 33.407929 -118.415338 230 3285ft 82kts
08-Nov-19 09:38 33.382106 -118.418320 203 3594ft 93kts
08-Nov-19 09:39 33.354924 -118.426223 208 3671ft 105kts
08-Nov-19 09:40 33.329037 -118.439061 214 3566ft 98kts
08-Nov-19 09:41 33.305638 -118.452632 254 3791ft 85kts
08-Nov-19 09:42 33.323160 -118.463420 35 3935ft 123kts
08-Nov-19 09:43 33.349179 -118.437887 25 3860ft 119kts
08-Nov-19 09:44 33.374492 -118.420464 34 3885ft 103kts
08-Nov-19 09:45 33.391667 -118.429209 249 3912ft 86kts
08-Nov-19 09:46 33.368421 -118.426759 111 3926ft 119kts
08-Nov-19 09:47 33.384757 -118.398063 33 4035ft 111kts
08-Nov-19 09:48 33.404964 -118.406812 262 4068ft 90kts
08-Nov-19 09:49 33.379883 -118.419101 200 3980ft 109kts
08-Nov-19 09:50 33.350281 -118.423838 194 3954ft 107kts
08-Nov-19 09:51 33.327878 -118.438786 267 3909ft 94kts
08-Nov-19 09:52 33.342778 -118.463618 337 3865ft 102kts
08-Nov-19 09:53 33.359133 -118.436015 85 3827ft 121kts
08-Nov-19 09:54 33.380472 -118.422652 334 3834ft 97kts
08-Nov-19 09:55 33.375471 -118.442766 211 3807ft 98kts
08-Nov-19 09:56 33.351787 -118.456735 216 3854ft 95kts
08-Nov-19 09:57 33.334581 -118.437269 63 3806ft 122kts
08-Nov-19 09:58 33.360150 -118.428604 7 3814ft 110kts
08-Nov-19 09:59 33.386426 -118.418335 330 3864ft 98kts
08-Nov-19 10:00 33.379570 -118.438758 195 3879ft 100kts
08-Nov-19 10:01 33.352759 -118.447384 205 3872ft 100kts
08-Nov-19 10:02 33.333442 -118.429511 74 3853ft 120kts
08-Nov-19 10:03 33.358816 -118.421486 339 3823ft 101kts
08-Nov-19 10:04 33.386095 -118.418982 20 3818ft 113kts
08-Nov-19 10:05 33.414709 -118.413180 354 3855ft 102kts
08-Nov-19 10:06 33.443809 -118.409580 350 3841ft 103kts
08-Nov-19 10:07 33.472823 -118.402573 16 3790ft 113kts
08-Nov-19 10:08 33.501641 -118.398446 342 3828ft 100kts
08-Nov-19 10:09 33.523766 -118.415314 320 3835ft 95kts
08-Nov-19 10:10 33.548799 -118.419570 37 3548ft 119kts
08-Nov-19 10:11 33.542209 -118.387372 140 3406ft 109kts
08-Nov-19 10:12 33.517155 -118.384889 219 2974ft 94kts
08-Nov-19 10:13 33.494026 -118.397878 204 2260ft 97kts
08-Nov-19 10:14 33.469658 -118.406006 199 2292ft 93kts
08-Nov-19 10:15 33.442883 -118.410095 201 2129ft 91kts
08-Nov-19 10:17 33.416670 -118.404754 197 1947ft 97kts
08-Nov-19 10:18 33.406913 -118.412700 238 1512ft 0kts
08-Nov-19 10:19 33.406913 -118.412700 238 1512ft 0kts
08-Nov-19 10:20 33.402764 -118.419583 54 1554ft 0kts

Navigation Log

Ident Type
Flight plan parsing failed, navigation log unavailable